Procious, West Virginia
Current Conditions -  °F | °C
As of 1:54 PM on Friday 21 Nov 2014 (Local Time) from KCRW Reporting Station
Clear Clear  
Wind Chill: 29°   Ceiling: Unl
Heat Index: 35°   Visibility: 10mi
Dew Point:   Wind: 8mph
Humidity: 33%   Direction: 230°SW
Pressure: 30.49"   Gusts: NA
Location:  38.5°N, 81.21°W
Report Text: KCRW 211854Z 23007KT 10SM CLR 02/M13 A3049 RMK AO2 SLP332 T00171133
Loading
Personal Weather Stations






























Interactive Weather Map New forecast layout! Learn more

10-Day Weather Forecast

Advertisements
Track Severe Weather on mobile